createdAt,value
2018-05-19T00:01:24.787Z,34.20
2018-05-19T00:03:51.057Z,38.27
2018-05-19T00:06:17.351Z,31.30
2018-05-19T00:08:43.628Z,35.53
2018-05-19T00:11:09.955Z,34.13
2018-05-19T00:13:36.238Z,31.30
2018-05-19T00:16:02.518Z,32.53
2018-05-19T00:18:28.818Z,31.93
2018-05-19T00:20:55.106Z,32.80
2018-05-19T00:23:21.443Z,36.10
2018-05-19T00:25:47.749Z,32.50
2018-05-19T00:28:14.804Z,30.80
2018-05-19T00:30:41.843Z,29.33
2018-05-19T00:33:08.902Z,29.37
2018-05-19T00:35:35.231Z,29.53
2018-05-19T00:38:02.299Z,28.10
2018-05-19T00:40:28.622Z,31.77
2018-05-19T00:42:54.964Z,33.70
2018-05-19T00:45:21.337Z,25.20
2018-05-19T00:47:47.618Z,29.87
2018-05-19T00:50:13.917Z,30.77
2018-05-19T00:52:40.964Z,29.33
2018-05-19T00:55:07.225Z,29.60
2018-05-19T00:57:33.537Z,32.23
2018-05-19T01:00:00.561Z,27.90
2018-05-19T01:02:26.867Z,31.73
2018-05-19T01:04:53.141Z,29.10
2018-05-19T01:07:20.223Z,27.00
2018-05-19T01:09:46.513Z,27.77
2018-05-19T01:12:13.638Z,28.00
2018-05-19T01:14:39.977Z,30.60
2018-05-19T01:17:06.325Z,30.13
2018-05-19T01:19:32.593Z,27.10
2018-05-19T01:21:58.877Z,27.37
2018-05-19T01:24:25.195Z,27.10
2018-05-19T01:26:51.512Z,29.33
2018-05-19T01:29:17.764Z,31.50
2018-05-19T01:31:44.085Z,35.67
2018-05-19T01:34:10.369Z,29.17
2018-05-19T01:36:36.645Z,33.20
2018-05-19T01:39:03.048Z,37.40
2018-05-19T01:41:29.380Z,32.43
2018-05-19T01:43:55.779Z,62.60
2018-05-19T01:46:22.073Z,31.73
2018-05-19T01:48:48.402Z,31.27
2018-05-19T01:51:14.697Z,34.77
2018-05-19T01:53:41.023Z,34.17
2018-05-19T01:56:07.351Z,33.90
2018-05-19T01:58:33.703Z,31.57
2018-05-19T02:00:59.964Z,35.33
2018-05-19T02:03:26.245Z,28.10
2018-05-19T02:05:52.540Z,34.80
2018-05-19T02:08:18.872Z,33.77
2018-05-19T02:10:45.166Z,37.43
2018-05-19T02:13:12.191Z,35.13
2018-05-19T02:15:38.502Z,35.83
2018-05-19T02:18:05.555Z,34.63
2018-05-19T02:20:31.858Z,38.10
2018-05-19T02:22:58.170Z,32.13
2018-05-19T02:25:24.468Z,34.27
2018-05-19T02:27:50.810Z,33.83
2018-05-19T02:30:17.061Z,34.70
2018-05-19T02:32:43.335Z,29.20
2018-05-19T02:35:09.653Z,30.27
2018-05-19T02:37:36.711Z,37.17
2018-05-19T02:40:03.791Z,36.57
2018-05-19T02:42:30.077Z,30.10
2018-05-19T02:44:57.116Z,35.67
2018-05-19T02:47:23.374Z,34.13
2018-05-19T02:49:49.711Z,35.43
2018-05-19T02:52:16.033Z,33.20
2018-05-19T02:54:42.389Z,36.27
2018-05-19T02:57:08.651Z,36.90
2018-05-19T02:59:34.940Z,42.37
2018-05-19T03:02:01.258Z,33.60
2018-05-19T03:04:27.569Z,29.23
2018-05-19T03:06:54.618Z,39.37
2018-05-19T03:09:21.973Z,30.07
2018-05-19T03:11:49.026Z,36.90
2018-05-19T03:14:16.073Z,31.73
2018-05-19T03:16:42.442Z,35.03
2018-05-19T03:19:08.763Z,33.83
2018-05-19T03:21:35.068Z,33.63
2018-05-19T03:24:02.113Z,32.20
2018-05-19T03:26:29.175Z,37.93
2018-05-19T03:28:56.245Z,38.70
2018-05-19T03:31:22.527Z,32.73
2018-05-19T03:33:48.901Z,34.00
2018-05-19T03:36:15.252Z,35.90
2018-05-19T03:38:41.615Z,37.67
2018-05-19T03:41:07.889Z,32.27
2018-05-19T03:43:34.199Z,30.30
2018-05-19T03:46:01.266Z,38.23
2018-05-19T03:48:27.584Z,29.13
2018-05-19T03:50:54.625Z,36.53
2018-05-19T03:53:21.705Z,39.73
2018-05-19T03:55:47.977Z,36.63
2018-05-19T03:58:33.006Z,34.23
2018-05-19T04:01:17.939Z,38.83
2018-05-19T04:03:44.993Z,41.80
2018-05-19T04:06:12.668Z,34.33
2018-05-19T04:08:38.987Z,40.60
2018-05-19T04:11:06.011Z,37.73
2018-05-19T04:13:32.323Z,49.10
2018-05-19T04:15:58.678Z,38.20
2018-05-19T04:18:24.978Z,37.03
2018-05-19T04:20:52.031Z,37.80
2018-05-19T04:23:18.341Z,49.93
2018-05-19T04:25:44.620Z,37.17
2018-05-19T04:28:11.639Z,33.37
2018-05-19T04:30:37.968Z,38.93
2018-05-19T04:33:04.255Z,33.40
2018-05-19T04:35:30.542Z,39.03
2018-05-19T04:37:56.814Z,39.57
2018-05-19T04:40:23.128Z,42.63
2018-05-19T04:42:50.138Z,35.53
2018-05-19T04:45:16.469Z,42.90
2018-05-19T04:47:42.771Z,39.90
2018-05-19T04:50:09.078Z,38.40
2018-05-19T04:52:36.174Z,31.07
2018-05-19T04:55:02.470Z,40.37
2018-05-19T04:57:28.734Z,41.57
2018-05-19T04:59:55.747Z,44.80
2018-05-19T05:02:21.993Z,38.67
2018-05-19T05:04:48.281Z,40.60
2018-05-19T05:07:15.307Z,39.00
2018-05-19T05:09:41.579Z,39.40
2018-05-19T05:12:07.849Z,38.40
2018-05-19T05:14:34.204Z,37.50
2018-05-19T05:17:00.507Z,32.47
2018-05-19T05:19:26.838Z,46.90
2018-05-19T05:21:53.129Z,38.53
2018-05-19T05:24:19.425Z,42.87
2018-05-19T05:26:45.687Z,41.93
2018-05-19T05:29:12.755Z,41.50
2018-05-19T05:31:39.075Z,35.87
2018-05-19T05:34:05.374Z,35.40
2018-05-19T05:36:31.666Z,34.43
2018-05-19T05:38:57.990Z,34.47
2018-05-19T05:41:24.287Z,34.50
2018-05-19T05:43:51.277Z,39.20
2018-05-19T05:46:17.571Z,41.17
2018-05-19T05:48:43.902Z,37.97
2018-05-19T05:51:10.186Z,39.90
2018-05-19T05:53:36.479Z,31.70
2018-05-19T05:56:02.816Z,35.80
2018-05-19T05:58:29.167Z,39.37
2018-05-19T06:00:55.491Z,38.90
2018-05-19T06:03:21.815Z,36.97
2018-05-19T06:05:48.197Z,35.17
2018-05-19T06:08:15.259Z,39.80
2018-05-19T06:10:42.343Z,36.50
2018-05-19T06:13:08.634Z,47.57
2018-05-19T06:15:35.723Z,35.97
2018-05-19T06:18:02.154Z,34.10
2018-05-19T06:20:28.489Z,33.67
2018-05-19T06:22:54.785Z,32.80
2018-05-19T06:25:21.823Z,32.93
2018-05-19T06:27:48.944Z,32.37
2018-05-19T06:30:15.298Z,31.87
2018-05-19T06:32:42.359Z,36.30
2018-05-19T06:35:08.646Z,33.37
2018-05-19T06:37:34.950Z,36.33
2018-05-19T06:40:01.246Z,35.20
2018-05-19T06:42:28.250Z,40.10
2018-05-19T06:44:54.849Z,33.97
2018-05-19T06:47:21.154Z,34.90
2018-05-19T06:49:48.243Z,36.73
2018-05-19T06:52:14.582Z,27.77
2018-05-19T06:54:40.862Z,35.93
2018-05-19T06:57:07.887Z,35.93
2018-05-19T06:59:34.239Z,30.90
2018-05-19T07:02:01.332Z,41.50
2018-05-19T07:04:27.639Z,30.10
2018-05-19T07:06:54.683Z,34.87
2018-05-19T07:09:21.705Z,37.50
2018-05-19T07:11:48.009Z,33.17
2018-05-19T07:14:15.073Z,38.50
2018-05-19T07:16:41.406Z,37.40
2018-05-19T07:19:07.682Z,28.87
2018-05-19T07:21:34.046Z,36.90
2018-05-19T07:24:00.383Z,33.40
2018-05-19T07:26:26.709Z,31.80
2018-05-19T07:28:53.045Z,39.33
2018-05-19T07:31:19.359Z,41.00
2018-05-19T07:33:45.704Z,28.20
2018-05-19T07:36:12.104Z,30.37
2018-05-19T07:38:39.304Z,34.10
2018-05-19T07:41:05.644Z,28.83
2018-05-19T07:43:31.959Z,32.53
2018-05-19T07:45:58.309Z,30.53
2018-05-19T07:48:24.645Z,36.23
2018-05-19T07:50:50.980Z,42.17
2018-05-19T07:53:18.150Z,34.40
2018-05-19T07:55:45.179Z,34.30
2018-05-19T07:58:12.281Z,44.50
2018-05-19T08:00:38.531Z,36.67
2018-05-19T08:03:04.879Z,33.50
2018-05-19T08:05:31.175Z,32.30
2018-05-19T08:07:57.449Z,37.13
2018-05-19T08:10:23.777Z,33.20
2018-05-19T08:12:50.882Z,32.47
2018-05-19T08:15:17.170Z,39.97
2018-05-19T08:17:44.195Z,39.50
2018-05-19T08:20:10.500Z,35.50
2018-05-19T08:22:36.822Z,41.70
2018-05-19T08:25:03.190Z,33.90
2018-05-19T08:27:29.499Z,42.13
2018-05-19T08:29:55.801Z,36.23
2018-05-19T08:32:22.109Z,40.23
2018-05-19T08:34:49.181Z,40.67
2018-05-19T08:37:15.564Z,39.23
2018-05-19T08:39:41.859Z,34.30
2018-05-19T08:42:08.160Z,39.23
2018-05-19T08:44:34.444Z,33.70
2018-05-19T08:47:00.829Z,36.97
2018-05-19T08:49:27.091Z,42.30
2018-05-19T08:51:53.369Z,36.67
2018-05-19T08:54:20.363Z,32.63
2018-05-19T08:56:46.707Z,31.20
2018-05-19T08:59:13.031Z,35.40
2018-05-19T09:01:39.360Z,34.83
2018-05-19T09:04:05.653Z,29.73
2018-05-19T09:06:32.702Z,32.97
2018-05-19T09:08:59.010Z,38.23
2018-05-19T09:11:25.309Z,37.50
2018-05-19T09:13:58.683Z,33.30
2018-05-19T09:16:24.961Z,32.40
2018-05-19T09:18:51.255Z,40.03
2018-05-19T09:21:17.648Z,37.73
2018-05-19T09:23:44.666Z,39.07
2018-05-19T09:26:10.992Z,39.40
2018-05-19T09:28:37.304Z,33.33
2018-05-19T09:31:03.617Z,39.30
2018-05-19T09:33:29.949Z,37.43
2018-05-19T09:35:56.247Z,36.80
2018-05-19T09:38:23.311Z,40.43
2018-05-19T09:40:49.604Z,36.87
2018-05-19T09:43:16.642Z,37.63
2018-05-19T09:45:42.999Z,28.83
2018-05-19T09:48:10.108Z,40.07
2018-05-19T09:50:37.094Z,37.90
2018-05-19T09:53:04.197Z,31.70
2018-05-19T09:55:30.477Z,32.77
2018-05-19T09:57:57.544Z,34.23
2018-05-19T10:00:23.877Z,34.40
2018-05-19T10:02:50.235Z,35.93
2018-05-19T10:05:16.594Z,33.87
2018-05-19T10:07:42.870Z,32.20
2018-05-19T10:10:09.250Z,32.13
2018-05-19T10:12:35.614Z,34.67
2018-05-19T10:15:02.656Z,42.23
2018-05-19T10:17:29.977Z,34.97
2018-05-19T10:19:56.396Z,33.70
2018-05-19T10:22:22.728Z,29.40
2018-05-19T10:24:49.070Z,30.57
2018-05-19T10:27:15.352Z,33.00
2018-05-19T10:29:42.439Z,28.70
2018-05-19T10:32:08.833Z,28.80
2018-05-19T10:34:35.141Z,30.80
2018-05-19T10:37:01.501Z,31.43
2018-05-19T10:39:27.805Z,30.00
2018-05-19T10:41:54.840Z,32.40
2018-05-19T10:44:21.163Z,29.97
2018-05-19T10:46:47.464Z,29.23
2018-05-19T10:49:13.769Z,23.67
2018-05-19T10:51:40.826Z,33.43
2018-05-19T10:54:07.121Z,33.17
2018-05-19T10:56:34.255Z,30.03
2018-05-19T10:59:00.565Z,27.83
2018-05-19T11:01:26.863Z,33.53
2018-05-19T11:03:53.230Z,29.47
2018-05-19T11:06:19.547Z,34.07
2018-05-19T11:08:45.866Z,34.90
2018-05-19T11:11:12.178Z,27.00
2018-05-19T11:13:39.232Z,40.67
2018-05-19T11:16:05.497Z,29.73
2018-05-19T11:18:31.885Z,37.50
2018-05-19T11:20:58.140Z,32.20
2018-05-19T11:23:24.458Z,27.87
2018-05-19T11:25:50.749Z,38.53
2018-05-19T11:28:17.049Z,34.60
2018-05-19T11:30:43.298Z,34.17
2018-05-19T11:33:09.595Z,28.03
2018-05-19T11:35:35.894Z,29.10
2018-05-19T11:38:03.032Z,27.60
2018-05-19T11:40:30.119Z,27.77
2018-05-19T11:42:56.428Z,34.03
2018-05-19T11:45:23.467Z,28.00
2018-05-19T11:47:50.496Z,34.40
2018-05-19T11:50:16.795Z,32.90
2018-05-19T11:52:43.142Z,32.93
2018-05-19T11:55:09.420Z,38.83
2018-05-19T11:57:37.478Z,29.87
2018-05-19T12:00:04.525Z,28.20
2018-05-19T12:02:31.601Z,28.13
2018-05-19T12:04:57.919Z,29.63
2018-05-19T12:07:24.987Z,29.20
2018-05-19T12:09:51.296Z,29.60
2018-05-19T12:12:18.443Z,26.10
2018-05-19T12:14:44.687Z,25.30
2018-05-19T12:17:10.997Z,32.40
2018-05-19T12:19:38.039Z,29.20
2018-05-19T12:22:05.043Z,31.77
2018-05-19T12:24:31.448Z,30.80
2018-05-19T12:26:57.814Z,28.20
2018-05-19T12:29:24.086Z,30.07
2018-05-19T12:31:51.228Z,38.20
2018-05-19T12:34:17.499Z,34.60
2018-05-19T12:36:43.795Z,31.23
2018-05-19T12:39:10.895Z,36.90
2018-05-19T12:41:37.322Z,32.90
2018-05-19T12:44:03.665Z,32.70
2018-05-19T12:46:30.940Z,32.80
2018-05-19T12:48:57.248Z,29.53
2018-05-19T12:51:23.530Z,27.33
2018-05-19T12:53:50.606Z,38.00
2018-05-19T12:56:16.936Z,36.57
2018-05-19T12:58:43.323Z,34.17
2018-05-19T13:01:10.450Z,34.13
2018-05-19T13:03:36.854Z,28.50
2018-05-19T13:06:03.096Z,38.07
2018-05-19T13:08:29.494Z,29.87
2018-05-19T13:10:56.573Z,32.37
2018-05-19T13:13:22.844Z,38.30
2018-05-19T13:15:49.183Z,31.90
2018-05-19T13:18:15.512Z,33.90
2018-05-19T13:20:41.817Z,32.20
2018-05-19T13:23:08.156Z,39.53
2018-05-19T13:25:34.542Z,33.23
2018-05-19T13:28:00.864Z,33.33
2018-05-19T13:30:27.941Z,31.93
2018-05-19T13:33:01.381Z,39.97
2018-05-19T13:35:27.712Z,39.00
2018-05-19T13:37:53.995Z,35.47
2018-05-19T13:40:20.339Z,33.10
2018-05-19T13:42:47.209Z,39.87
2018-05-19T13:45:13.550Z,36.93
2018-05-19T13:47:39.880Z,32.90
2018-05-19T13:50:06.217Z,38.27
2018-05-19T13:52:32.581Z,31.57
2018-05-19T13:54:58.898Z,30.23
2018-05-19T13:57:25.970Z,36.23
2018-05-19T13:59:52.287Z,31.80
2018-05-19T14:02:18.603Z,34.20
2018-05-19T14:04:45.663Z,31.70
2018-05-19T14:07:12.772Z,31.17
2018-05-19T14:09:39.071Z,35.40
2018-05-19T14:12:05.401Z,27.90
2018-05-19T14:14:31.758Z,32.00
2018-05-19T14:16:58.065Z,27.00
2018-05-19T14:19:24.419Z,26.73
2018-05-19T14:21:50.725Z,34.67
2018-05-19T14:24:17.058Z,29.03
2018-05-19T14:26:43.346Z,29.10
2018-05-19T14:29:10.416Z,30.70
2018-05-19T14:31:36.736Z,27.73
2018-05-19T14:34:03.797Z,26.07
2018-05-19T14:36:30.157Z,26.83
2018-05-19T14:38:56.467Z,30.77
2018-05-19T14:41:22.794Z,24.50
2018-05-19T14:43:49.074Z,24.43
2018-05-19T14:46:15.392Z,25.23
2018-05-19T14:48:41.710Z,25.20
2018-05-19T14:51:08.118Z,24.33
2018-05-19T14:53:34.451Z,23.10
2018-05-19T14:56:00.795Z,23.20
2018-05-19T14:58:27.078Z,22.13
2018-05-19T15:00:54.150Z,21.20
2018-05-19T15:03:20.467Z,21.23
2018-05-19T15:05:47.573Z,22.00
2018-05-19T15:08:13.898Z,23.47
2018-05-19T15:10:40.190Z,23.60
2018-05-19T15:13:07.210Z,22.33
2018-05-19T15:15:33.463Z,25.00
2018-05-19T15:18:00.483Z,25.10
2018-05-19T15:20:26.825Z,25.23
2018-05-19T15:22:53.872Z,25.10
2018-05-19T15:25:20.946Z,24.80
2018-05-19T15:27:47.222Z,24.67
2018-05-19T15:30:13.551Z,23.67
2018-05-19T15:32:40.608Z,22.60
2018-05-19T15:35:07.016Z,23.20
2018-05-19T15:37:33.299Z,21.47
2018-05-19T15:40:00.367Z,29.93
2018-05-19T15:42:26.707Z,21.87
2018-05-19T15:44:53.027Z,22.30
2018-05-19T15:47:19.368Z,21.63
2018-05-19T15:49:45.700Z,20.50
2018-05-19T15:52:12.029Z,20.03
2018-05-19T15:54:38.351Z,23.10
2018-05-19T15:57:04.720Z,21.10
2018-05-19T15:59:31.043Z,19.27
2018-05-19T16:01:57.353Z,19.13
2018-05-19T16:04:23.708Z,19.40
2018-05-19T16:06:50.069Z,19.60
2018-05-19T16:09:16.394Z,17.90
2018-05-19T16:11:42.748Z,19.60
2018-05-19T16:14:09.814Z,17.13
2018-05-19T16:16:36.889Z,16.63
2018-05-19T16:19:03.257Z,16.37
2018-05-19T16:21:29.611Z,17.27
2018-05-19T16:23:56.687Z,16.90
2018-05-19T16:26:23.050Z,16.70
2018-05-19T16:28:49.406Z,15.97
2018-05-19T16:31:15.747Z,17.87
2018-05-19T16:33:42.062Z,16.03
2018-05-19T16:36:08.345Z,16.37
2018-05-19T16:38:34.728Z,15.47
2018-05-19T16:41:01.787Z,14.97
2018-05-19T16:43:28.158Z,17.10
2018-05-19T16:45:54.567Z,13.47
2018-05-19T16:48:21.662Z,13.30
2018-05-19T16:50:47.990Z,13.47
2018-05-19T16:53:14.325Z,12.63
2018-05-19T16:55:40.575Z,15.13
2018-05-19T16:58:06.936Z,13.90
2018-05-19T17:00:34.031Z,16.47
2018-05-19T17:03:00.394Z,14.13
2018-05-19T17:05:26.688Z,15.53
2018-05-19T17:07:53.011Z,16.07
2018-05-19T17:10:19.490Z,14.13
2018-05-19T17:12:45.783Z,14.73
2018-05-19T17:15:12.149Z,14.37
2018-05-19T17:17:38.541Z,15.57
2018-05-19T17:20:04.882Z,15.20
2018-05-19T17:22:31.159Z,15.07
2018-05-19T17:24:57.464Z,14.50
2018-05-19T17:27:23.771Z,23.77
2018-05-19T17:29:50.173Z,13.70
2018-05-19T17:32:17.259Z,17.47
2018-05-19T17:34:43.607Z,16.50
2018-05-19T17:37:09.936Z,13.63
2018-05-19T17:39:36.256Z,12.03
2018-05-19T17:42:02.655Z,14.17
2018-05-19T17:44:29.748Z,17.33
2018-05-19T17:46:56.083Z,13.60
2018-05-19T17:49:22.436Z,13.40
2018-05-19T17:51:48.741Z,13.90
2018-05-19T17:54:15.047Z,13.20
2018-05-19T17:56:41.334Z,12.53
2018-05-19T17:59:07.667Z,17.03
2018-05-19T18:01:34.028Z,12.53
2018-05-19T18:04:00.262Z,14.13
2018-05-19T18:06:26.613Z,17.83
2018-05-19T18:08:52.931Z,16.67
2018-05-19T18:11:19.181Z,14.97
2018-05-19T18:13:45.571Z,16.00
2018-05-19T18:16:12.668Z,20.13
2018-05-19T18:18:39.092Z,24.10
2018-05-19T18:21:05.484Z,22.77
2018-05-19T18:23:32.638Z,25.67
2018-05-19T18:25:58.979Z,18.90
2018-05-19T18:28:25.327Z,22.40
2018-05-19T18:30:51.693Z,27.40
2018-05-19T18:33:18.084Z,24.73
2018-05-19T18:35:44.544Z,22.97
2018-05-19T18:38:10.814Z,27.33
2018-05-19T18:40:37.929Z,25.00
2018-05-19T18:43:04.266Z,25.60
2018-05-19T18:48:04.722Z,24.00
2018-05-19T18:50:31.074Z,33.90
2018-05-19T18:52:59.075Z,27.53
2018-05-19T18:55:25.434Z,35.53
2018-05-19T18:57:53.731Z,25.50
2018-05-19T19:00:20.030Z,35.40
2018-05-19T19:02:46.335Z,31.63
2018-05-19T19:05:13.387Z,34.27
2018-05-19T19:07:39.723Z,34.43
2018-05-19T19:10:07.172Z,30.27
2018-05-19T19:12:34.184Z,30.97
2018-05-19T19:15:00.498Z,40.53
2018-05-19T19:17:26.818Z,42.97
2018-05-19T19:19:53.156Z,34.70
2018-05-19T19:22:19.479Z,32.50
2018-05-19T19:24:45.747Z,36.37
2018-05-19T19:27:12.076Z,41.60
2018-05-19T19:29:38.402Z,35.80
2018-05-19T19:32:04.730Z,38.73
2018-05-19T19:34:31.054Z,39.53
2018-05-19T19:36:57.468Z,38.77
2018-05-19T19:39:23.815Z,34.40
2018-05-19T19:41:50.164Z,48.37
2018-05-19T19:44:16.489Z,57.33
2018-05-19T19:46:42.860Z,43.27
2018-05-19T19:49:09.219Z,50.17
2018-05-19T19:51:35.557Z,48.80
2018-05-19T19:54:01.882Z,49.13
2018-05-19T19:56:28.168Z,49.00
2018-05-19T19:58:55.297Z,48.43
2018-05-19T20:01:21.608Z,73.93
2018-05-19T20:03:47.930Z,54.60
2018-05-19T20:06:14.270Z,60.40
2018-05-19T20:08:40.583Z,66.67
2018-05-19T20:11:06.963Z,59.07
2018-05-19T20:13:33.303Z,53.43
2018-05-19T20:16:00.327Z,46.10
2018-05-19T20:18:27.053Z,60.50
2018-05-19T20:20:53.404Z,68.43
2018-05-19T20:23:19.742Z,68.60
2018-05-19T20:25:46.099Z,55.67
2018-05-19T20:28:13.184Z,51.57
2018-05-19T20:30:39.519Z,52.47
2018-05-19T20:33:05.854Z,48.87
2018-05-19T20:35:32.149Z,44.57
2018-05-19T20:37:58.491Z,49.80
2018-05-19T20:40:24.802Z,51.47
2018-05-19T20:42:51.867Z,38.93
2018-05-19T20:45:18.192Z,48.03
2018-05-19T20:47:44.506Z,53.30
2018-05-19T20:50:11.620Z,51.20
2018-05-19T20:52:37.921Z,47.30
2018-05-19T20:55:04.246Z,49.17
2018-05-19T20:57:30.581Z,49.47
2018-05-19T20:59:56.940Z,51.83
2018-05-19T21:02:23.222Z,55.80
2018-05-19T21:04:49.564Z,50.47
2018-05-19T21:07:15.869Z,52.77
2018-05-19T21:09:43.008Z,62.47
2018-05-19T21:12:09.374Z,64.37
2018-05-19T21:14:35.667Z,56.27
2018-05-19T21:17:03.501Z,61.83
2018-05-19T21:19:30.666Z,65.50
2018-05-19T21:21:57.059Z,60.60
2018-05-19T21:24:23.389Z,62.63
2018-05-19T21:26:49.716Z,65.60
2018-05-19T21:29:16.078Z,60.80
2018-05-19T21:31:42.452Z,65.23
2018-05-19T21:34:08.769Z,70.43
2018-05-19T21:36:35.101Z,63.57
2018-05-19T21:39:01.391Z,60.10
2018-05-19T21:41:27.724Z,69.33
2018-05-19T21:43:54.052Z,78.13
2018-05-19T21:46:20.382Z,64.37
2018-05-19T21:48:46.681Z,67.67
2018-05-19T21:51:13.729Z,67.07
2018-05-19T21:53:40.863Z,69.47
2018-05-19T21:56:07.210Z,75.53
2018-05-19T21:58:34.234Z,65.50
2018-05-19T22:01:00.495Z,61.53
2018-05-19T22:03:27.511Z,63.90
2018-05-19T22:05:53.826Z,66.83
2018-05-19T22:08:20.095Z,65.60
2018-05-19T22:10:47.139Z,71.37
2018-05-19T22:13:14.167Z,68.50
2018-05-19T22:15:40.491Z,67.67
2018-05-19T22:18:06.858Z,67.60
2018-05-19T22:20:33.203Z,69.37
2018-05-19T22:22:59.492Z,76.57
2018-05-19T22:25:25.791Z,76.07
2018-05-19T22:27:52.060Z,67.93
2018-05-19T22:30:18.375Z,81.10
2018-05-19T22:32:44.703Z,78.00
2018-05-19T22:35:11.090Z,75.07
2018-05-19T22:37:37.364Z,72.73
2018-05-19T22:40:03.702Z,74.37
2018-05-19T22:42:30.037Z,83.73
2018-05-19T22:44:56.371Z,81.50
2018-05-19T22:47:22.683Z,86.57
2018-05-19T22:49:48.993Z,77.43
2018-05-19T22:52:15.338Z,84.10
2018-05-19T22:54:41.641Z,73.47
2018-05-19T22:57:07.994Z,72.23
2018-05-19T22:59:34.317Z,72.80
2018-05-19T23:02:00.647Z,69.60
2018-05-19T23:04:27.033Z,66.43
2018-05-19T23:06:53.399Z,69.87
2018-05-19T23:09:19.710Z,66.03
2018-05-19T23:11:46.751Z,71.53
2018-05-19T23:14:13.038Z,67.73
2018-05-19T23:16:39.401Z,67.47
2018-05-19T23:19:05.711Z,68.77
2018-05-19T23:21:32.798Z,61.63
2018-05-19T23:23:59.809Z,62.37
2018-05-19T23:26:26.173Z,66.10
2018-05-19T23:28:52.485Z,60.53
2018-05-19T23:31:18.804Z,62.77
2018-05-19T23:33:45.100Z,76.33
2018-05-19T23:36:11.413Z,71.20
2018-05-19T23:38:37.737Z,69.67
2018-05-19T23:41:04.758Z,70.07
2018-05-19T23:43:31.099Z,68.17
2018-05-19T23:45:57.383Z,64.27
2018-05-19T23:48:23.708Z,76.47
2018-05-19T23:50:50.030Z,67.07
2018-05-19T23:53:16.328Z,68.60
2018-05-19T23:55:43.418Z,72.07
2018-05-19T23:58:09.695Z,72.20
